sensor_id;sensor_type;location;lat;lon;timestamp;P1;durP1;ratioP1;P2;durP2;ratioP2
12675;SDS011;63820;65.654;21.944;2023-02-14T00:02:09;4.37;;;1.40;;
12675;SDS011;63820;65.654;21.944;2023-02-14T00:04:54;6.83;;;1.80;;
12675;SDS011;63820;65.654;21.944;2023-02-14T00:07:38;7.33;;;1.47;;
12675;SDS011;63820;65.654;21.944;2023-02-14T00:10:22;9.37;;;1.77;;
12675;SDS011;63820;65.654;21.944;2023-02-14T00:13:06;4.63;;;1.57;;
12675;SDS011;63820;65.654;21.944;2023-02-14T00:15:49;4.57;;;1.40;;
12675;SDS011;63820;65.654;21.944;2023-02-14T00:18:33;5.90;;;1.70;;
12675;SDS011;63820;65.654;21.944;2023-02-14T00:21:36;7.77;;;1.67;;
12675;SDS011;63820;65.654;21.944;2023-02-14T00:24:22;4.10;;;1.40;;
12675;SDS011;63820;65.654;21.944;2023-02-14T00:27:08;7.00;;;1.63;;
12675;SDS011;63820;65.654;21.944;2023-02-14T00:29:52;6.43;;;1.80;;
12675;SDS011;63820;65.654;21.944;2023-02-14T00:32:40;6.53;;;1.67;;
12675;SDS011;63820;65.654;21.944;2023-02-14T00:35:25;6.90;;;2.17;;
12675;SDS011;63820;65.654;21.944;2023-02-14T00:38:09;10.07;;;2.00;;
12675;SDS011;63820;65.654;21.944;2023-02-14T00:40:53;8.00;;;1.47;;
12675;SDS011;63820;65.654;21.944;2023-02-14T00:43:37;7.53;;;1.73;;
12675;SDS011;63820;65.654;21.944;2023-02-14T00:46:21;8.07;;;2.03;;
12675;SDS011;63820;65.654;21.944;2023-02-14T00:49:06;6.50;;;1.70;;
12675;SDS011;63820;65.654;21.944;2023-02-14T00:51:50;4.23;;;1.60;;
12675;SDS011;63820;65.654;21.944;2023-02-14T00:54:34;6.27;;;2.10;;
12675;SDS011;63820;65.654;21.944;2023-02-14T00:57:19;8.07;;;1.70;;
12675;SDS011;63820;65.654;21.944;2023-02-14T01:00:03;6.40;;;1.67;;
12675;SDS011;63820;65.654;21.944;2023-02-14T01:02:48;8.30;;;1.63;;
12675;SDS011;63820;65.654;21.944;2023-02-14T01:05:32;10.17;;;1.77;;
12675;SDS011;63820;65.654;21.944;2023-02-14T01:08:16;10.73;;;1.83;;
12675;SDS011;63820;65.654;21.944;2023-02-14T01:11:08;6.43;;;1.60;;
12675;SDS011;63820;65.654;21.944;2023-02-14T01:13:56;9.63;;;1.97;;
12675;SDS011;63820;65.654;21.944;2023-02-14T01:16:41;7.67;;;1.50;;
12675;SDS011;63820;65.654;21.944;2023-02-14T01:19:26;4.33;;;1.60;;
12675;SDS011;63820;65.654;21.944;2023-02-14T01:22:10;6.73;;;1.80;;
12675;SDS011;63820;65.654;21.944;2023-02-14T01:24:54;7.67;;;1.57;;
12675;SDS011;63820;65.654;21.944;2023-02-14T01:27:38;7.33;;;1.83;;
12675;SDS011;63820;65.654;21.944;2023-02-14T01:30:22;6.53;;;1.50;;
12675;SDS011;63820;65.654;21.944;2023-02-14T01:33:06;6.10;;;1.60;;
12675;SDS011;63820;65.654;21.944;2023-02-14T01:35:51;5.10;;;1.40;;
12675;SDS011;63820;65.654;21.944;2023-02-14T01:38:35;4.33;;;1.97;;
12675;SDS011;63820;65.654;21.944;2023-02-14T01:41:19;4.93;;;1.53;;
12675;SDS011;63820;65.654;21.944;2023-02-14T01:46:50;9.43;;;1.93;;
12675;SDS011;63820;65.654;21.944;2023-02-14T01:49:36;5.03;;;1.33;;
12675;SDS011;63820;65.654;21.944;2023-02-14T01:55:14;5.20;;;1.63;;
12675;SDS011;63820;65.654;21.944;2023-02-14T01:58:06;6.70;;;1.83;;
12675;SDS011;63820;65.654;21.944;2023-02-14T02:00:54;7.90;;;1.67;;
12675;SDS011;63820;65.654;21.944;2023-02-14T02:03:43;7.40;;;1.70;;
12675;SDS011;63820;65.654;21.944;2023-02-14T02:06:34;11.07;;;2.00;;
12675;SDS011;63820;65.654;21.944;2023-02-14T02:09:33;7.43;;;1.90;;
12675;SDS011;63820;65.654;21.944;2023-02-14T02:12:33;7.20;;;1.73;;
12675;SDS011;63820;65.654;21.944;2023-02-14T02:15:19;5.83;;;1.70;;
12675;SDS011;63820;65.654;21.944;2023-02-14T02:18:19;6.77;;;1.63;;
12675;SDS011;63820;65.654;21.944;2023-02-14T02:36:57;5.90;;;1.67;;
12675;SDS011;63820;65.654;21.944;2023-02-14T02:50:16;7.47;;;1.87;;
12675;SDS011;63820;65.654;21.944;2023-02-14T02:59:26;9.23;;;1.97;;
12675;SDS011;63820;65.654;21.944;2023-02-14T03:02:33;6.47;;;1.80;;
12675;SDS011;63820;65.654;21.944;2023-02-14T03:05:41;7.83;;;2.10;;
12675;SDS011;63820;65.654;21.944;2023-02-14T03:08:26;6.87;;;2.00;;
12675;SDS011;63820;65.654;21.944;2023-02-14T03:11:11;5.20;;;1.90;;
12675;SDS011;63820;65.654;21.944;2023-02-14T03:14:30;11.57;;;2.17;;
12675;SDS011;63820;65.654;21.944;2023-02-14T03:17:26;6.50;;;1.73;;
12675;SDS011;63820;65.654;21.944;2023-02-14T03:23:21;5.73;;;1.77;;
12675;SDS011;63820;65.654;21.944;2023-02-14T03:38:55;6.90;;;1.70;;
12675;SDS011;63820;65.654;21.944;2023-02-14T03:41:49;6.80;;;1.67;;
12675;SDS011;63820;65.654;21.944;2023-02-14T03:44:39;7.30;;;2.00;;
12675;SDS011;63820;65.654;21.944;2023-02-14T03:47:27;3.70;;;1.93;;
12675;SDS011;63820;65.654;21.944;2023-02-14T03:50:17;5.67;;;1.50;;
12675;SDS011;63820;65.654;21.944;2023-02-14T03:53:02;9.90;;;2.23;;
12675;SDS011;63820;65.654;21.944;2023-02-14T03:59:20;6.73;;;1.90;;
12675;SDS011;63820;65.654;21.944;2023-02-14T04:02:11;8.70;;;2.27;;
12675;SDS011;63820;65.654;21.944;2023-02-14T04:05:00;6.40;;;1.50;;
12675;SDS011;63820;65.654;21.944;2023-02-14T04:07:50;8.33;;;1.80;;
12675;SDS011;63820;65.654;21.944;2023-02-14T04:10:36;5.30;;;1.50;;
12675;SDS011;63820;65.654;21.944;2023-02-14T04:13:22;6.50;;;1.53;;
12675;SDS011;63820;65.654;21.944;2023-02-14T04:16:07;5.23;;;1.33;;
12675;SDS011;63820;65.654;21.944;2023-02-14T04:18:51;4.90;;;1.83;;
12675;SDS011;63820;65.654;21.944;2023-02-14T04:21:54;4.00;;;1.60;;
12675;SDS011;63820;65.654;21.944;2023-02-14T04:24:38;5.57;;;1.40;;
12675;SDS011;63820;65.654;21.944;2023-02-14T04:27:22;3.87;;;1.30;;
12675;SDS011;63820;65.654;21.944;2023-02-14T04:30:07;5.50;;;1.77;;
12675;SDS011;63820;65.654;21.944;2023-02-14T04:32:51;4.93;;;1.50;;
12675;SDS011;63820;65.654;21.944;2023-02-14T04:35:35;4.57;;;1.50;;
12675;SDS011;63820;65.654;21.944;2023-02-14T04:38:20;5.87;;;1.40;;
12675;SDS011;63820;65.654;21.944;2023-02-14T04:41:04;6.30;;;1.30;;
12675;SDS011;63820;65.654;21.944;2023-02-14T04:43:48;6.50;;;1.47;;
12675;SDS011;63820;65.654;21.944;2023-02-14T04:46:32;3.70;;;1.43;;
12675;SDS011;63820;65.654;21.944;2023-02-14T04:49:16;5.70;;;1.60;;
12675;SDS011;63820;65.654;21.944;2023-02-14T04:52:01;4.67;;;1.73;;
12675;SDS011;63820;65.654;21.944;2023-02-14T04:54:46;4.50;;;1.30;;
12675;SDS011;63820;65.654;21.944;2023-02-14T04:57:31;5.53;;;1.67;;
12675;SDS011;63820;65.654;21.944;2023-02-14T05:00:16;4.47;;;1.57;;
12675;SDS011;63820;65.654;21.944;2023-02-14T05:03:00;4.77;;;1.67;;
12675;SDS011;63820;65.654;21.944;2023-02-14T05:05:45;5.37;;;1.40;;
12675;SDS011;63820;65.654;21.944;2023-02-14T05:08:29;4.40;;;1.23;;
12675;SDS011;63820;65.654;21.944;2023-02-14T05:11:13;4.67;;;1.33;;
12675;SDS011;63820;65.654;21.944;2023-02-14T05:13:58;6.37;;;1.60;;
12675;SDS011;63820;65.654;21.944;2023-02-14T05:16:42;5.50;;;1.20;;
12675;SDS011;63820;65.654;21.944;2023-02-14T05:19:26;3.60;;;1.10;;
12675;SDS011;63820;65.654;21.944;2023-02-14T05:22:10;9.83;;;1.73;;
12675;SDS011;63820;65.654;21.944;2023-02-14T05:24:54;5.90;;;1.30;;
12675;SDS011;63820;65.654;21.944;2023-02-14T05:27:38;2.70;;;1.60;;
12675;SDS011;63820;65.654;21.944;2023-02-14T05:30:22;3.87;;;1.50;;
12675;SDS011;63820;65.654;21.944;2023-02-14T05:33:10;4.50;;;1.60;;
12675;SDS011;63820;65.654;21.944;2023-02-14T05:35:59;3.57;;;1.73;;
12675;SDS011;63820;65.654;21.944;2023-02-14T05:38:45;3.07;;;1.37;;
12675;SDS011;63820;65.654;21.944;2023-02-14T05:41:29;5.53;;;1.70;;
12675;SDS011;63820;65.654;21.944;2023-02-14T05:44:13;6.43;;;1.80;;
12675;SDS011;63820;65.654;21.944;2023-02-14T05:46:57;3.80;;;1.40;;
12675;SDS011;63820;65.654;21.944;2023-02-14T05:49:41;8.83;;;2.33;;
12675;SDS011;63820;65.654;21.944;2023-02-14T05:52:25;3.57;;;1.30;;
12675;SDS011;63820;65.654;21.944;2023-02-14T05:55:10;5.53;;;1.60;;
12675;SDS011;63820;65.654;21.944;2023-02-14T05:57:54;6.37;;;1.77;;
12675;SDS011;63820;65.654;21.944;2023-02-14T06:00:39;6.27;;;1.50;;
12675;SDS011;63820;65.654;21.944;2023-02-14T06:03:23;5.70;;;1.47;;
12675;SDS011;63820;65.654;21.944;2023-02-14T06:06:08;6.93;;;1.90;;
12675;SDS011;63820;65.654;21.944;2023-02-14T06:08:52;3.63;;;1.60;;
12675;SDS011;63820;65.654;21.944;2023-02-14T06:11:37;8.63;;;1.47;;
12675;SDS011;63820;65.654;21.944;2023-02-14T06:14:21;2.60;;;1.30;;
12675;SDS011;63820;65.654;21.944;2023-02-14T06:17:06;6.00;;;1.80;;
12675;SDS011;63820;65.654;21.944;2023-02-14T06:19:50;3.97;;;1.27;;
12675;SDS011;63820;65.654;21.944;2023-02-14T06:22:35;4.40;;;1.40;;
12675;SDS011;63820;65.654;21.944;2023-02-14T06:25:19;6.20;;;1.37;;
12675;SDS011;63820;65.654;21.944;2023-02-14T06:28:04;5.73;;;1.20;;
12675;SDS011;63820;65.654;21.944;2023-02-14T06:30:49;1.73;;;0.90;;
12675;SDS011;63820;65.654;21.944;2023-02-14T06:33:33;3.73;;;1.07;;
12675;SDS011;63820;65.654;21.944;2023-02-14T06:36:17;6.20;;;1.37;;
12675;SDS011;63820;65.654;21.944;2023-02-14T06:39:02;5.97;;;1.30;;
12675;SDS011;63820;65.654;21.944;2023-02-14T06:41:46;5.90;;;1.40;;
12675;SDS011;63820;65.654;21.944;2023-02-14T06:44:30;4.87;;;1.13;;
12675;SDS011;63820;65.654;21.944;2023-02-14T06:47:14;6.20;;;1.63;;
12675;SDS011;63820;65.654;21.944;2023-02-14T06:49:59;3.27;;;1.50;;
12675;SDS011;63820;65.654;21.944;2023-02-14T06:52:44;3.23;;;1.10;;
12675;SDS011;63820;65.654;21.944;2023-02-14T06:55:28;4.13;;;1.20;;
12675;SDS011;63820;65.654;21.944;2023-02-14T06:58:12;4.07;;;1.30;;
12675;SDS011;63820;65.654;21.944;2023-02-14T07:00:57;5.17;;;1.57;;
12675;SDS011;63820;65.654;21.944;2023-02-14T07:03:42;4.97;;;1.40;;
12675;SDS011;63820;65.654;21.944;2023-02-14T07:06:26;4.97;;;1.40;;
12675;SDS011;63820;65.654;21.944;2023-02-14T07:09:11;3.47;;;1.37;;
12675;SDS011;63820;65.654;21.944;2023-02-14T07:11:59;3.53;;;1.47;;
12675;SDS011;63820;65.654;21.944;2023-02-14T07:14:44;3.23;;;1.40;;
12675;SDS011;63820;65.654;21.944;2023-02-14T07:17:27;3.97;;;1.47;;
12675;SDS011;63820;65.654;21.944;2023-02-14T07:20:11;6.60;;;1.50;;
12675;SDS011;63820;65.654;21.944;2023-02-14T07:22:56;3.70;;;1.10;;
12675;SDS011;63820;65.654;21.944;2023-02-14T07:25:40;2.30;;;1.10;;
12675;SDS011;63820;65.654;21.944;2023-02-14T07:28:24;5.33;;;2.33;;
12675;SDS011;63820;65.654;21.944;2023-02-14T07:31:08;3.83;;;1.63;;
12675;SDS011;63820;65.654;21.944;2023-02-14T07:33:52;4.10;;;0.80;;
12675;SDS011;63820;65.654;21.944;2023-02-14T07:36:37;4.67;;;1.07;;
12675;SDS011;63820;65.654;21.944;2023-02-14T07:39:22;2.57;;;1.00;;
12675;SDS011;63820;65.654;21.944;2023-02-14T07:42:06;1.47;;;0.93;;
12675;SDS011;63820;65.654;21.944;2023-02-14T07:44:51;2.83;;;1.10;;
12675;SDS011;63820;65.654;21.944;2023-02-14T07:47:35;6.47;;;1.47;;
12675;SDS011;63820;65.654;21.944;2023-02-14T07:50:19;3.17;;;1.00;;
12675;SDS011;63820;65.654;21.944;2023-02-14T07:53:05;2.23;;;1.07;;
12675;SDS011;63820;65.654;21.944;2023-02-14T07:55:51;2.67;;;1.30;;
12675;SDS011;63820;65.654;21.944;2023-02-14T07:58:35;5.40;;;1.10;;
12675;SDS011;63820;65.654;21.944;2023-02-14T08:01:19;3.83;;;1.67;;
12675;SDS011;63820;65.654;21.944;2023-02-14T08:04:03;5.70;;;1.77;;
12675;SDS011;63820;65.654;21.944;2023-02-14T08:06:47;3.03;;;1.20;;
12675;SDS011;63820;65.654;21.944;2023-02-14T08:09:31;2.97;;;1.00;;
12675;SDS011;63820;65.654;21.944;2023-02-14T08:12:16;2.20;;;1.17;;
12675;SDS011;63820;65.654;21.944;2023-02-14T08:15:19;4.77;;;1.33;;
12675;SDS011;63820;65.654;21.944;2023-02-14T08:18:22;3.10;;;0.90;;
12675;SDS011;63820;65.654;21.944;2023-02-14T08:21:07;1.80;;;1.20;;
12675;SDS011;63820;65.654;21.944;2023-02-14T08:23:52;1.40;;;1.00;;
12675;SDS011;63820;65.654;21.944;2023-02-14T08:26:36;2.73;;;1.40;;
12675;SDS011;63820;65.654;21.944;2023-02-14T08:29:20;4.80;;;0.90;;
12675;SDS011;63820;65.654;21.944;2023-02-14T08:32:04;1.90;;;0.97;;
12675;SDS011;63820;65.654;21.944;2023-02-14T08:34:48;1.83;;;0.87;;
12675;SDS011;63820;65.654;21.944;2023-02-14T08:37:33;1.17;;;0.70;;
12675;SDS011;63820;65.654;21.944;2023-02-14T08:40:17;1.00;;;0.70;;
12675;SDS011;63820;65.654;21.944;2023-02-14T08:43:03;1.43;;;0.87;;
12675;SDS011;63820;65.654;21.944;2023-02-14T08:45:51;2.03;;;1.00;;
12675;SDS011;63820;65.654;21.944;2023-02-14T08:48:36;1.20;;;0.67;;
12675;SDS011;63820;65.654;21.944;2023-02-14T08:51:21;1.73;;;0.77;;
12675;SDS011;63820;65.654;21.944;2023-02-14T08:54:06;1.40;;;0.70;;
12675;SDS011;63820;65.654;21.944;2023-02-14T08:56:50;2.47;;;0.70;;
12675;SDS011;63820;65.654;21.944;2023-02-14T08:59:34;1.57;;;0.87;;
12675;SDS011;63820;65.654;21.944;2023-02-14T09:02:18;2.80;;;1.00;;
12675;SDS011;63820;65.654;21.944;2023-02-14T09:05:02;2.07;;;0.87;;
12675;SDS011;63820;65.654;21.944;2023-02-14T09:07:47;1.17;;;0.80;;
12675;SDS011;63820;65.654;21.944;2023-02-14T09:10:31;2.57;;;1.00;;
12675;SDS011;63820;65.654;21.944;2023-02-14T09:13:15;1.97;;;1.30;;
12675;SDS011;63820;65.654;21.944;2023-02-14T09:16:03;3.20;;;1.33;;
12675;SDS011;63820;65.654;21.944;2023-02-14T09:18:48;1.97;;;1.20;;
12675;SDS011;63820;65.654;21.944;2023-02-14T09:21:34;2.67;;;1.47;;
12675;SDS011;63820;65.654;21.944;2023-02-14T09:24:18;2.50;;;1.20;;
12675;SDS011;63820;65.654;21.944;2023-02-14T09:27:03;2.97;;;1.40;;
12675;SDS011;63820;65.654;21.944;2023-02-14T09:29:48;1.87;;;1.20;;
12675;SDS011;63820;65.654;21.944;2023-02-14T09:32:32;2.40;;;1.17;;
12675;SDS011;63820;65.654;21.944;2023-02-14T09:35:16;1.83;;;1.03;;
12675;SDS011;63820;65.654;21.944;2023-02-14T09:38:19;1.70;;;1.20;;
12675;SDS011;63820;65.654;21.944;2023-02-14T09:41:04;1.70;;;1.27;;
12675;SDS011;63820;65.654;21.944;2023-02-14T09:43:59;1.10;;;0.73;;
12675;SDS011;63820;65.654;21.944;2023-02-14T09:46:50;1.33;;;0.65;;
12675;SDS011;63820;65.654;21.944;2023-02-14T09:49:36;1.55;;;0.80;;
12675;SDS011;63820;65.654;21.944;2023-02-14T09:52:24;1.40;;;0.68;;
12675;SDS011;63820;65.654;21.944;2023-02-14T09:55:14;1.30;;;0.68;;
12675;SDS011;63820;65.654;21.944;2023-02-14T10:06:50;1.45;;;0.60;;
12675;SDS011;63820;65.654;21.944;2023-02-14T10:15:40;1.35;;;0.70;;
12675;SDS011;63820;65.654;21.944;2023-02-14T10:18:48;1.23;;;0.93;;
12675;SDS011;63820;65.654;21.944;2023-02-14T10:24:35;1.13;;;0.70;;
12675;SDS011;63820;65.654;21.944;2023-02-14T10:27:34;0.70;;;0.65;;
12675;SDS011;63820;65.654;21.944;2023-02-14T10:30:22;1.48;;;0.63;;
12675;SDS011;63820;65.654;21.944;2023-02-14T10:33:17;0.88;;;0.60;;
12675;SDS011;63820;65.654;21.944;2023-02-14T10:39:25;1.10;;;0.63;;
12675;SDS011;63820;65.654;21.944;2023-02-14T10:42:29;1.87;;;0.80;;
12675;SDS011;63820;65.654;21.944;2023-02-14T10:48:57;1.60;;;0.80;;
12675;SDS011;63820;65.654;21.944;2023-02-14T10:55:18;1.87;;;0.73;;
12675;SDS011;63820;65.654;21.944;2023-02-14T10:58:09;0.90;;;0.63;;
12675;SDS011;63820;65.654;21.944;2023-02-14T11:01:18;1.97;;;0.70;;
12675;SDS011;63820;65.654;21.944;2023-02-14T11:04:02;1.00;;;0.57;;
12675;SDS011;63820;65.654;21.944;2023-02-14T11:06:51;0.90;;;0.60;;
12675;SDS011;63820;65.654;21.944;2023-02-14T11:09:35;1.13;;;0.77;;
12675;SDS011;63820;65.654;21.944;2023-02-14T11:12:33;1.60;;;0.80;;
12675;SDS011;63820;65.654;21.944;2023-02-14T11:15:25;1.10;;;0.80;;
12675;SDS011;63820;65.654;21.944;2023-02-14T11:18:19;1.80;;;0.60;;
12675;SDS011;63820;65.654;21.944;2023-02-14T11:21:10;1.63;;;0.70;;
12675;SDS011;63820;65.654;21.944;2023-02-14T11:24:14;1.33;;;0.70;;
12675;SDS011;63820;65.654;21.944;2023-02-14T11:29:53;3.27;;;0.90;;
12675;SDS011;63820;65.654;21.944;2023-02-14T11:32:37;2.30;;;1.00;;
12675;SDS011;63820;65.654;21.944;2023-02-14T11:35:24;1.67;;;1.00;;
12675;SDS011;63820;65.654;21.944;2023-02-14T11:38:26;1.30;;;0.57;;
12675;SDS011;63820;65.654;21.944;2023-02-14T11:41:17;1.50;;;0.90;;
12675;SDS011;63820;65.654;21.944;2023-02-14T11:44:10;3.23;;;1.13;;
12675;SDS011;63820;65.654;21.944;2023-02-14T11:50:25;1.70;;;0.77;;
12675;SDS011;63820;65.654;21.944;2023-02-14T11:53:09;3.27;;;1.27;;
12675;SDS011;63820;65.654;21.944;2023-02-14T11:55:56;1.90;;;1.10;;
12675;SDS011;63820;65.654;21.944;2023-02-14T11:58:48;2.30;;;1.10;;
12675;SDS011;63820;65.654;21.944;2023-02-14T12:01:35;2.17;;;1.23;;
12675;SDS011;63820;65.654;21.944;2023-02-14T12:04:26;2.87;;;0.90;;
12675;SDS011;63820;65.654;21.944;2023-02-14T12:07:37;3.67;;;1.10;;
12675;SDS011;63820;65.654;21.944;2023-02-14T12:10:23;2.80;;;1.20;;
12675;SDS011;63820;65.654;21.944;2023-02-14T12:15:54;2.73;;;1.07;;
12675;SDS011;63820;65.654;21.944;2023-02-14T12:18:49;1.80;;;1.00;;
12675;SDS011;63820;65.654;21.944;2023-02-14T12:24:56;3.73;;;0.90;;
12675;SDS011;63820;65.654;21.944;2023-02-14T12:27:48;2.93;;;1.10;;
12675;SDS011;63820;65.654;21.944;2023-02-14T12:30:36;2.60;;;1.30;;
12675;SDS011;63820;65.654;21.944;2023-02-14T12:33:21;1.87;;;1.10;;
12675;SDS011;63820;65.654;21.944;2023-02-14T12:44:42;2.30;;;0.80;;
12675;SDS011;63820;65.654;21.944;2023-02-14T13:00:25;1.93;;;0.87;;
12675;SDS011;63820;65.654;21.944;2023-02-14T13:06:29;1.87;;;1.00;;
12675;SDS011;63820;65.654;21.944;2023-02-14T13:18:24;2.03;;;0.90;;
12675;SDS011;63820;65.654;21.944;2023-02-14T13:21:23;1.33;;;0.73;;
12675;SDS011;63820;65.654;21.944;2023-02-14T13:24:18;1.87;;;0.90;;
12675;SDS011;63820;65.654;21.944;2023-02-14T13:27:06;2.43;;;0.90;;
12675;SDS011;63820;65.654;21.944;2023-02-14T13:29:56;2.40;;;0.90;;
12675;SDS011;63820;65.654;21.944;2023-02-14T13:32:45;3.20;;;0.90;;
12675;SDS011;63820;65.654;21.944;2023-02-14T13:35:33;2.30;;;0.77;;
12675;SDS011;63820;65.654;21.944;2023-02-14T13:38:17;2.43;;;1.07;;
12675;SDS011;63820;65.654;21.944;2023-02-14T13:41:03;2.70;;;1.00;;
12675;SDS011;63820;65.654;21.944;2023-02-14T13:44:00;2.10;;;1.03;;
12675;SDS011;63820;65.654;21.944;2023-02-14T13:46:46;1.13;;;0.80;;
12675;SDS011;63820;65.654;21.944;2023-02-14T13:49:33;3.43;;;1.10;;
12675;SDS011;63820;65.654;21.944;2023-02-14T13:55:43;1.93;;;0.87;;
12675;SDS011;63820;65.654;21.944;2023-02-14T13:58:28;2.53;;;0.90;;
12675;SDS011;63820;65.654;21.944;2023-02-14T14:07:15;1.23;;;0.93;;
12675;SDS011;63820;65.654;21.944;2023-02-14T14:10:03;3.00;;;1.00;;
12675;SDS011;63820;65.654;21.944;2023-02-14T14:12:48;1.80;;;0.90;;
12675;SDS011;63820;65.654;21.944;2023-02-14T14:15:34;1.47;;;0.80;;
12675;SDS011;63820;65.654;21.944;2023-02-14T14:24:57;1.30;;;1.00;;
12675;SDS011;63820;65.654;21.944;2023-02-14T14:27:44;2.80;;;0.87;;
12675;SDS011;63820;65.654;21.944;2023-02-14T14:30:29;4.13;;;1.10;;
12675;SDS011;63820;65.654;21.944;2023-02-14T14:33:28;1.63;;;0.80;;
12675;SDS011;63820;65.654;21.944;2023-02-14T14:36:21;2.83;;;1.00;;
12675;SDS011;63820;65.654;21.944;2023-02-14T14:39:07;2.73;;;0.93;;
12675;SDS011;63820;65.654;21.944;2023-02-14T14:41:52;2.30;;;0.87;;
12675;SDS011;63820;65.654;21.944;2023-02-14T14:44:37;1.40;;;0.90;;
12675;SDS011;63820;65.654;21.944;2023-02-14T14:47:41;2.60;;;1.00;;
12675;SDS011;63820;65.654;21.944;2023-02-14T14:50:27;2.60;;;1.10;;
12675;SDS011;63820;65.654;21.944;2023-02-14T14:53:21;2.20;;;0.90;;
12675;SDS011;63820;65.654;21.944;2023-02-14T14:56:30;3.97;;;1.13;;
12675;SDS011;63820;65.654;21.944;2023-02-14T14:59:28;2.07;;;0.80;;
12675;SDS011;63820;65.654;21.944;2023-02-14T15:02:21;4.17;;;1.10;;
12675;SDS011;63820;65.654;21.944;2023-02-14T15:05:18;1.30;;;0.97;;
12675;SDS011;63820;65.654;21.944;2023-02-14T15:11:09;2.63;;;1.17;;
12675;SDS011;63820;65.654;21.944;2023-02-14T15:14:29;2.23;;;1.30;;
12675;SDS011;63820;65.654;21.944;2023-02-14T15:17:19;1.50;;;0.87;;
12675;SDS011;63820;65.654;21.944;2023-02-14T15:20:29;2.53;;;1.10;;
12675;SDS011;63820;65.654;21.944;2023-02-14T15:23:16;2.10;;;1.00;;
12675;SDS011;63820;65.654;21.944;2023-02-14T15:26:03;2.53;;;1.20;;
12675;SDS011;63820;65.654;21.944;2023-02-14T15:28:54;3.03;;;1.37;;
12675;SDS011;63820;65.654;21.944;2023-02-14T15:31:44;3.13;;;0.90;;
12675;SDS011;63820;65.654;21.944;2023-02-14T15:34:29;1.53;;;1.00;;
12675;SDS011;63820;65.654;21.944;2023-02-14T15:37:19;3.37;;;1.13;;
12675;SDS011;63820;65.654;21.944;2023-02-14T15:40:05;1.97;;;1.23;;
12675;SDS011;63820;65.654;21.944;2023-02-14T15:42:51;2.03;;;1.10;;
12675;SDS011;63820;65.654;21.944;2023-02-14T15:45:40;2.17;;;1.30;;
12675;SDS011;63820;65.654;21.944;2023-02-14T15:48:27;2.40;;;1.00;;
12675;SDS011;63820;65.654;21.944;2023-02-14T15:51:18;2.87;;;1.20;;
12675;SDS011;63820;65.654;21.944;2023-02-14T15:54:06;2.90;;;1.20;;
12675;SDS011;63820;65.654;21.944;2023-02-14T15:57:01;1.83;;;1.20;;
12675;SDS011;63820;65.654;21.944;2023-02-14T15:59:46;2.03;;;1.20;;
12675;SDS011;63820;65.654;21.944;2023-02-14T16:02:38;2.77;;;1.57;;
12675;SDS011;63820;65.654;21.944;2023-02-14T16:05:24;2.07;;;1.33;;
12675;SDS011;63820;65.654;21.944;2023-02-14T16:08:43;3.50;;;1.40;;
12675;SDS011;63820;65.654;21.944;2023-02-14T16:11:28;3.07;;;1.53;;
12675;SDS011;63820;65.654;21.944;2023-02-14T16:14:31;2.10;;;1.60;;
12675;SDS011;63820;65.654;21.944;2023-02-14T16:17:32;4.63;;;1.70;;
12675;SDS011;63820;65.654;21.944;2023-02-14T16:23:24;3.50;;;2.00;;
12675;SDS011;63820;65.654;21.944;2023-02-14T16:26:11;2.77;;;1.93;;
12675;SDS011;63820;65.654;21.944;2023-02-14T16:28:55;4.33;;;1.47;;
12675;SDS011;63820;65.654;21.944;2023-02-14T16:31:43;4.13;;;2.40;;
12675;SDS011;63820;65.654;21.944;2023-02-14T16:34:32;5.70;;;3.30;;
12675;SDS011;63820;65.654;21.944;2023-02-14T16:37:28;24.73;;;16.27;;
12675;SDS011;63820;65.654;21.944;2023-02-14T16:40:14;10.03;;;7.50;;
12675;SDS011;63820;65.654;21.944;2023-02-14T16:42:59;9.87;;;4.40;;
12675;SDS011;63820;65.654;21.944;2023-02-14T16:45:43;6.63;;;3.47;;
12675;SDS011;63820;65.654;21.944;2023-02-14T16:48:28;6.40;;;2.90;;
12675;SDS011;63820;65.654;21.944;2023-02-14T16:51:12;5.87;;;3.20;;
12675;SDS011;63820;65.654;21.944;2023-02-14T16:54:02;7.03;;;3.40;;
12675;SDS011;63820;65.654;21.944;2023-02-14T16:59:44;7.03;;;3.20;;
12675;SDS011;63820;65.654;21.944;2023-02-14T17:02:28;5.83;;;3.40;;
12675;SDS011;63820;65.654;21.944;2023-02-14T17:05:13;10.60;;;4.90;;
12675;SDS011;63820;65.654;21.944;2023-02-14T17:07:57;10.70;;;3.80;;
12675;SDS011;63820;65.654;21.944;2023-02-14T17:10:43;10.30;;;2.90;;
12675;SDS011;63820;65.654;21.944;2023-02-14T17:13:28;5.33;;;2.67;;
12675;SDS011;63820;65.654;21.944;2023-02-14T17:16:16;8.83;;;2.83;;
12675;SDS011;63820;65.654;21.944;2023-02-14T17:19:00;4.53;;;2.43;;
12675;SDS011;63820;65.654;21.944;2023-02-14T17:21:46;8.20;;;2.80;;
12675;SDS011;63820;65.654;21.944;2023-02-14T17:24:31;7.60;;;3.07;;
12675;SDS011;63820;65.654;21.944;2023-02-14T17:27:15;8.10;;;3.13;;
12675;SDS011;63820;65.654;21.944;2023-02-14T17:30:00;10.00;;;4.30;;
12675;SDS011;63820;65.654;21.944;2023-02-14T17:32:44;12.27;;;6.00;;
12675;SDS011;63820;65.654;21.944;2023-02-14T17:35:28;14.50;;;6.33;;
12675;SDS011;63820;65.654;21.944;2023-02-14T17:38:13;12.87;;;6.03;;
12675;SDS011;63820;65.654;21.944;2023-02-14T17:40:57;13.33;;;6.87;;
12675;SDS011;63820;65.654;21.944;2023-02-14T17:43:42;12.77;;;6.50;;
12675;SDS011;63820;65.654;21.944;2023-02-14T17:46:28;12.20;;;6.17;;
12675;SDS011;63820;65.654;21.944;2023-02-14T17:49:14;10.13;;;4.80;;
12675;SDS011;63820;65.654;21.944;2023-02-14T17:51:58;8.57;;;4.30;;
12675;SDS011;63820;65.654;21.944;2023-02-14T17:54:42;9.50;;;5.10;;
12675;SDS011;63820;65.654;21.944;2023-02-14T17:57:28;7.77;;;4.50;;
12675;SDS011;63820;65.654;21.944;2023-02-14T18:00:13;7.77;;;4.30;;
12675;SDS011;63820;65.654;21.944;2023-02-14T18:02:58;8.90;;;4.70;;
12675;SDS011;63820;65.654;21.944;2023-02-14T18:05:42;7.30;;;4.10;;
12675;SDS011;63820;65.654;21.944;2023-02-14T18:08:31;9.63;;;4.53;;
12675;SDS011;63820;65.654;21.944;2023-02-14T18:11:17;8.37;;;5.00;;
12675;SDS011;63820;65.654;21.944;2023-02-14T18:14:03;11.60;;;5.43;;
12675;SDS011;63820;65.654;21.944;2023-02-14T18:16:47;10.47;;;5.37;;
12675;SDS011;63820;65.654;21.944;2023-02-14T18:19:31;9.20;;;4.83;;
12675;SDS011;63820;65.654;21.944;2023-02-14T18:22:15;7.87;;;4.43;;
12675;SDS011;63820;65.654;21.944;2023-02-14T18:24:59;6.93;;;4.63;;
12675;SDS011;63820;65.654;21.944;2023-02-14T18:27:43;9.27;;;5.20;;
12675;SDS011;63820;65.654;21.944;2023-02-14T18:30:28;10.97;;;5.40;;
12675;SDS011;63820;65.654;21.944;2023-02-14T18:33:12;10.97;;;6.13;;
12675;SDS011;63820;65.654;21.944;2023-02-14T18:36:00;11.87;;;5.63;;
12675;SDS011;63820;65.654;21.944;2023-02-14T18:38:46;8.67;;;5.37;;
12675;SDS011;63820;65.654;21.944;2023-02-14T18:41:31;10.67;;;5.97;;
12675;SDS011;63820;65.654;21.944;2023-02-14T18:44:16;12.53;;;5.40;;
12675;SDS011;63820;65.654;21.944;2023-02-14T18:47:00;9.80;;;5.30;;
12675;SDS011;63820;65.654;21.944;2023-02-14T18:49:45;9.87;;;5.90;;
12675;SDS011;63820;65.654;21.944;2023-02-14T18:52:29;11.47;;;5.47;;
12675;SDS011;63820;65.654;21.944;2023-02-14T18:55:13;7.97;;;5.70;;
12675;SDS011;63820;65.654;21.944;2023-02-14T18:57:57;13.80;;;5.87;;
12675;SDS011;63820;65.654;21.944;2023-02-14T19:00:41;9.80;;;5.67;;
12675;SDS011;63820;65.654;21.944;2023-02-14T19:03:25;8.97;;;5.73;;
12675;SDS011;63820;65.654;21.944;2023-02-14T19:06:09;10.43;;;6.43;;
12675;SDS011;63820;65.654;21.944;2023-02-14T19:08:55;10.33;;;4.90;;
12675;SDS011;63820;65.654;21.944;2023-02-14T19:11:40;8.37;;;5.30;;